Time;durP1;ratioP1;P1;durP2;ratioP2;P2;SDS_P1;SDS_P2;PMS_P1;PMS_P2;Temp;Humidity;BMP_temperature;BMP_pressure;BME280_temperature;BME280_humidity;BME280_pressure;Samples;Min_cycle;Max_cycle;Signal;HPM_P1;HPM_P2
2022/11/21 00:01:56;;;;;;;10.13;9.52;;;;;;;;;;4994203;28;20018;-59
2022/11/21 00:04:21;;;;;;;9.98;9.38;;;;;;;;;;4993979;28;20291;-59
2022/11/21 00:06:49;;;;;;;10.45;9.68;;;;;;;;;;4992752;28;20042;-59
2022/11/21 00:09:15;;;;;;;9.50;8.90;;;;;;;;;;4992152;28;20030;-59
2022/11/21 00:11:40;;;;;;;10.13;9.43;;;;;;;;;;4991964;28;20092;-59
2022/11/21 00:14:05;;;;;;;10.40;9.70;;;;;;;;;;4995289;28;20022;-59
2022/11/21 00:16:31;;;;;;;10.32;9.73;;;;;;;;;;4996074;28;20036;-59
2022/11/21 00:18:56;;;;;;;9.93;9.32;;;;;;;;;;4990829;28;20042;-59
2022/11/21 00:21:22;;;;;;;9.68;9.07;;;;;;;;;;4988253;28;20068;-59
2022/11/21 00:23:47;;;;;;;9.48;8.88;;;;;;;;;;4994378;28;20647;-60
2022/11/21 00:26:14;;;;;;;9.73;9.13;;;;;;;;;;4992057;28;20029;-59
2022/11/21 00:28:39;;;;;;;8.60;8.10;;;;;;;;;;4994668;28;20039;-59
2022/11/21 00:31:05;;;;;;;10.07;9.48;;;;;;;;;;4993829;28;20030;-59
2022/11/21 00:33:33;;;;;;;9.65;8.98;;;;;;;;;;4995714;28;20029;-59
2022/11/21 00:36:05;;;;;;;9.90;9.30;;;;;;;;;;5000147;28;20026;-59
2022/11/21 00:38:30;;;;;;;9.30;8.70;;;;;;;;;;4992741;28;20054;-59
2022/11/21 00:40:55;;;;;;;10.13;9.52;;;;;;;;;;4994489;28;20360;-58
2022/11/21 00:43:21;;;;;;;11.02;10.32;;;;;;;;;;4993941;28;20030;-58
2022/11/21 00:45:46;;;;;;;10.15;9.55;;;;;;;;;;4992955;28;20037;-58
2022/11/21 00:48:11;;;;;;;10.85;10.15;;;;;;;;;;4992641;28;20618;-58
2022/11/21 00:50:37;;;;;;;10.05;9.45;;;;;;;;;;4993980;28;20126;-58
2022/11/21 00:53:02;;;;;;;10.98;10.00;;;;;;;;;;4992761;28;20033;-58
2022/11/21 00:55:27;;;;;;;10.48;9.88;;;;;;;;;;4990338;28;20030;-58
2022/11/21 00:57:53;;;;;;;9.85;9.25;;;;;;;;;;4989525;28;20022;-58
2022/11/21 01:00:18;;;;;;;10.45;9.85;;;;;;;;;;4992104;28;20104;-58
2022/11/21 01:02:44;;;;;;;9.05;8.45;;;;;;;;;;4992520;28;20034;-58
2022/11/21 01:05:09;;;;;;;9.82;9.23;;;;;;;;;;4991055;28;20028;-58
2022/11/21 01:07:34;;;;;;;9.43;8.82;;;;;;;;;;4994553;28;20535;-58
2022/11/21 01:10:00;;;;;;;10.07;9.27;;;;;;;;;;4993171;28;20108;-58
2022/11/21 01:12:25;;;;;;;11.02;9.98;;;;;;;;;;4993479;28;20521;-58
2022/11/21 01:14:51;;;;;;;10.18;9.57;;;;;;;;;;4992248;28;20030;-58
2022/11/21 01:17:17;;;;;;;10.85;9.82;;;;;;;;;;4993805;28;20213;-58
2022/11/21 01:19:43;;;;;;;9.60;9.00;;;;;;;;;;4992770;28;20176;-58
2022/11/21 01:22:09;;;;;;;10.35;9.55;;;;;;;;;;4992947;28;20380;-58
2022/11/21 01:24:34;;;;;;;12.02;10.82;;;;;;;;;;4990602;28;20026;-58
2022/11/21 01:26:59;;;;;;;10.52;9.70;;;;;;;;;;4979332;28;20022;-58
2022/11/21 01:29:26;;;;;;;9.90;9.30;;;;;;;;;;4992749;28;20022;-58
2022/11/21 01:31:52;;;;;;;9.88;9.25;;;;;;;;;;4994743;28;20034;-58
2022/11/21 01:34:17;;;;;;;9.77;9.18;;;;;;;;;;4994402;28;20472;-59
2022/11/21 01:36:42;;;;;;;9.73;9.13;;;;;;;;;;4994046;28;20034;-58
2022/11/21 01:39:10;;;;;;;10.32;9.73;;;;;;;;;;4990997;28;20022;-58
2022/11/21 01:41:38;;;;;;;10.10;9.50;;;;;;;;;;4993468;28;20061;-58
2022/11/21 01:44:47;;;;;;;9.80;9.20;;;;;;;;;;4994199;28;20026;-59
2022/11/21 01:47:12;;;;;;;10.38;9.77;;;;;;;;;;4997608;28;20034;-59
2022/11/21 01:49:39;;;;;;;9.75;9.15;;;;;;;;;;4994456;28;20030;-59
2022/11/21 01:52:14;;;;;;;10.90;10.10;;;;;;;;;;4995932;28;20096;-58
2022/11/21 01:54:51;;;;;;;10.55;9.85;;;;;;;;;;4995117;28;20065;-58
2022/11/21 01:57:27;;;;;;;10.38;9.68;;;;;;;;;;4994984;28;20034;-58
2022/11/21 02:00:10;;;;;;;10.07;9.45;;;;;;;;;;4993303;28;20034;-58
2022/11/21 02:02:39;;;;;;;9.73;9.13;;;;;;;;;;4993420;28;20038;-58
2022/11/21 02:05:07;;;;;;;9.68;9.07;;;;;;;;;;5000925;28;20021;-58
2022/11/21 02:07:36;;;;;;;10.50;9.90;;;;;;;;;;4997980;28;20411;-57
2022/11/21 02:10:02;;;;;;;9.50;8.90;;;;;;;;;;4992780;28;20019;-58
2022/11/21 02:12:42;;;;;;;10.40;9.80;;;;;;;;;;4996538;28;20029;-58
2022/11/21 02:15:08;;;;;;;10.35;9.75;;;;;;;;;;4999279;28;20025;-58
2022/11/21 02:17:33;;;;;;;10.18;9.50;;;;;;;;;;4997047;28;20499;-58
2022/11/21 02:20:01;;;;;;;12.32;9.68;;;;;;;;;;4997360;28;20411;-58
2022/11/21 02:22:41;;;;;;;10.18;9.48;;;;;;;;;;4997089;28;20026;-58
2022/11/21 02:25:17;;;;;;;10.95;10.13;;;;;;;;;;4995103;28;20042;-58
2022/11/21 02:27:44;;;;;;;9.05;8.45;;;;;;;;;;4997314;28;20026;-58
2022/11/21 02:30:10;;;;;;;10.13;9.52;;;;;;;;;;4996331;28;20271;-58
2022/11/21 02:32:41;;;;;;;9.75;9.15;;;;;;;;;;4996041;28;20023;-58
2022/11/21 02:35:07;;;;;;;9.55;8.95;;;;;;;;;;4997199;28;20022;-58
2022/11/21 02:37:35;;;;;;;9.38;8.77;;;;;;;;;;4994771;28;20052;-58
2022/11/21 02:40:05;;;;;;;9.43;8.82;;;;;;;;;;4993301;28;20030;-58
2022/11/21 02:42:36;;;;;;;9.45;8.85;;;;;;;;;;4995707;28;20050;-59
2022/11/21 02:45:22;;;;;;;;;;;;;;;;;;4998218;28;20330;-58
2022/11/21 02:47:50;;;;;;;10.40;8.65;;;;;;;;;;4996141;28;19913;-58
2022/11/21 02:50:22;;;;;;;9.27;8.68;;;;;;;;;;4995016;28;20026;-58
2022/11/21 02:52:48;;;;;;;9.63;9.02;;;;;;;;;;4993605;28;20041;-59
2022/11/21 02:55:14;;;;;;;9.60;9.00;;;;;;;;;;4996790;28;20037;-59
2022/11/21 02:57:41;;;;;;;9.70;9.10;;;;;;;;;;4996060;28;20112;-58
2022/11/21 03:00:08;;;;;;;10.50;9.75;;;;;;;;;;4994958;28;20026;-59
2022/11/21 03:02:34;;;;;;;9.65;8.95;;;;;;;;;;4991981;28;20169;-58
2022/11/21 03:05:00;;;;;;;10.15;9.45;;;;;;;;;;4995983;28;20050;-58
2022/11/21 03:07:26;;;;;;;10.98;10.27;;;;;;;;;;4996228;28;20042;-58
2022/11/21 03:09:51;;;;;;;11.65;10.85;;;;;;;;;;4995220;28;20385;-58
2022/11/21 03:12:17;;;;;;;9.65;9.05;;;;;;;;;;4996282;28;20030;-58
2022/11/21 03:14:42;;;;;;;9.90;9.30;;;;;;;;;;4994956;28;20033;-58
2022/11/21 03:17:07;;;;;;;9.73;9.13;;;;;;;;;;4993796;28;20503;-58
2022/11/21 03:19:33;;;;;;;9.52;8.93;;;;;;;;;;4993009;28;20322;-58
2022/11/21 03:21:58;;;;;;;10.55;9.95;;;;;;;;;;4991052;28;20034;-58
2022/11/21 03:24:23;;;;;;;9.15;8.55;;;;;;;;;;4994029;28;20061;-58
2022/11/21 03:26:49;;;;;;;9.43;8.80;;;;;;;;;;4993270;28;20049;-58
2022/11/21 03:29:14;;;;;;;10.93;9.73;;;;;;;;;;4991420;28;20027;-58
2022/11/21 03:31:40;;;;;;;10.48;9.88;;;;;;;;;;4994071;28;20036;-58
2022/11/21 03:34:05;;;;;;;9.18;8.57;;;;;;;;;;4994532;28;20695;-58
2022/11/21 03:36:30;;;;;;;9.30;8.70;;;;;;;;;;4996132;28;20022;-58
2022/11/21 03:38:56;;;;;;;9.98;9.38;;;;;;;;;;4992963;28;20018;-58
2022/11/21 03:41:28;;;;;;;10.45;9.75;;;;;;;;;;4993365;28;20033;-58
2022/11/21 03:44:05;;;;;;;9.15;8.55;;;;;;;;;;4989119;28;20030;-58
2022/11/21 03:46:39;;;;;;;9.45;8.85;;;;;;;;;;4991037;28;20507;-58
2022/11/21 03:49:04;;;;;;;9.70;9.10;;;;;;;;;;4991586;28;20038;-58
2022/11/21 03:51:30;;;;;;;10.45;9.75;;;;;;;;;;4989527;28;20092;-58
2022/11/21 03:53:55;;;;;;;10.23;9.57;;;;;;;;;;4992750;28;20136;-58
2022/11/21 03:56:21;;;;;;;9.07;8.48;;;;;;;;;;4993186;28;20034;-58
2022/11/21 03:58:46;;;;;;;10.25;9.43;;;;;;;;;;4992023;28;20062;-58
2022/11/21 04:01:12;;;;;;;10.73;10.02;;;;;;;;;;4991259;28;20111;-58
2022/11/21 04:03:39;;;;;;;9.38;8.77;;;;;;;;;;4992150;28;20054;-58
2022/11/21 04:06:04;;;;;;;10.27;9.57;;;;;;;;;;4992322;28;20137;-58
2022/11/21 04:08:30;;;;;;;9.75;9.07;;;;;;;;;;4992711;28;20117;-58
2022/11/21 04:10:55;;;;;;;11.10;10.40;;;;;;;;;;4992919;28;20137;-58
2022/11/21 04:13:21;;;;;;;9.88;9.27;;;;;;;;;;4993270;28;20069;-58
2022/11/21 04:15:46;;;;;;;9.55;8.95;;;;;;;;;;4993245;28;20030;-57
2022/11/21 04:18:12;;;;;;;9.23;8.63;;;;;;;;;;4994215;28;20251;-58
2022/11/21 04:20:38;;;;;;;9.73;9.13;;;;;;;;;;4992769;28;20030;-58
2022/11/21 04:23:03;;;;;;;9.45;8.85;;;;;;;;;;4991312;28;20092;-58
2022/11/21 04:25:29;;;;;;;10.13;9.52;;;;;;;;;;4994014;28;20069;-58
2022/11/21 04:27:58;;;;;;;9.80;9.10;;;;;;;;;;4991907;28;20038;-58
2022/11/21 04:30:24;;;;;;;9.20;8.60;;;;;;;;;;4989792;28;20033;-58
2022/11/21 04:32:53;;;;;;;9.48;8.88;;;;;;;;;;4990889;28;20029;-58
2022/11/21 04:35:20;;;;;;;10.25;9.55;;;;;;;;;;4991787;28;20026;-59
2022/11/21 04:37:45;;;;;;;10.05;9.35;;;;;;;;;;4993230;28;20618;-59
2022/11/21 04:40:12;;;;;;;9.68;9.07;;;;;;;;;;4992306;28;20026;-59
2022/11/21 04:42:41;;;;;;;9.27;8.68;;;;;;;;;;4992367;28;20132;-59
2022/11/21 04:45:08;;;;;;;8.90;8.30;;;;;;;;;;4992154;28;20049;-59
2022/11/21 04:47:37;;;;;;;8.90;8.30;;;;;;;;;;4992920;28;20137;-59
2022/11/21 04:50:03;;;;;;;10.18;9.57;;;;;;;;;;4988735;28;20166;-59
2022/11/21 04:52:28;;;;;;;9.60;9.00;;;;;;;;;;4987758;28;20483;-59
2022/11/21 04:54:54;;;;;;;8.57;8.07;;;;;;;;;;4991867;28;20030;-58
2022/11/21 04:57:19;;;;;;;9.52;8.93;;;;;;;;;;4992851;28;20451;-59
2022/11/21 04:59:44;;;;;;;10.45;9.85;;;;;;;;;;4990835;28;20313;-59
2022/11/21 05:02:10;;;;;;;10.30;9.70;;;;;;;;;;4988249;28;20311;-59
2022/11/21 05:04:35;;;;;;;9.50;8.90;;;;;;;;;;4990811;28;20042;-59
2022/11/21 05:07:00;;;;;;;9.80;9.20;;;;;;;;;;4990540;28;20030;-59
2022/11/21 05:09:26;;;;;;;10.02;9.40;;;;;;;;;;4993468;28;20025;-59
2022/11/21 05:14:35;;;;;;;9.98;9.27;;;;;;;;;;4991440;28;20309;-58
2022/11/21 05:17:00;;;;;;;9.25;8.65;;;;;;;;;;4993256;28;20054;-58
2022/11/21 05:19:26;;;;;;;9.55;8.95;;;;;;;;;;4994890;28;20049;-59
2022/11/21 05:21:51;;;;;;;8.80;8.23;;;;;;;;;;4990479;28;20103;-59
2022/11/21 05:24:17;;;;;;;9.48;8.88;;;;;;;;;;4993640;28;20388;-59
2022/11/21 05:26:42;;;;;;;10.35;9.60;;;;;;;;;;4990077;28;20038;-59
2022/11/21 05:29:07;;;;;;;9.70;9.10;;;;;;;;;;4991439;28;20026;-59
2022/11/21 05:31:33;;;;;;;11.55;10.85;;;;;;;;;;4991286;28;20061;-59
2022/11/21 05:33:58;;;;;;;10.00;9.40;;;;;;;;;;4991795;28;20022;-59
2022/11/21 05:36:23;;;;;;;9.25;8.65;;;;;;;;;;4991740;28;20026;-59
2022/11/21 05:38:49;;;;;;;9.88;9.27;;;;;;;;;;4993465;28;20030;-58
2022/11/21 05:41:14;;;;;;;10.45;9.52;;;;;;;;;;4992798;28;20030;-58
2022/11/21 05:43:46;;;;;;;9.48;8.88;;;;;;;;;;4991157;28;20025;-59
2022/11/21 05:46:12;;;;;;;;;;;;;;;;;;4991798;28;20653;-59
2022/11/21 05:48:37;;;;;;;9.32;8.73;;;;;;;;;;4991996;28;20335;-59
2022/11/21 05:51:03;;;;;;;9.80;9.20;;;;;;;;;;4988691;28;20022;-59
2022/11/21 05:53:28;;;;;;;9.75;9.15;;;;;;;;;;4992370;28;20104;-59
2022/11/21 05:55:54;;;;;;;9.23;8.63;;;;;;;;;;4989704;28;20464;-60
2022/11/21 05:58:19;;;;;;;9.85;9.25;;;;;;;;;;4991438;28;20031;-58
2022/11/21 06:00:45;;;;;;;9.48;8.88;;;;;;;;;;4988957;28;20451;-58
2022/11/21 06:03:25;;;;;;;8.57;8.07;;;;;;;;;;4993179;28;20026;-59
2022/11/21 06:05:51;;;;;;;9.43;8.82;;;;;;;;;;4989032;28;20213;-59
2022/11/21 06:08:17;;;;;;;10.40;9.60;;;;;;;;;;4991469;28;20416;-59
2022/11/21 06:10:42;;;;;;;9.57;8.98;;;;;;;;;;4990360;28;20121;-59
2022/11/21 06:13:23;;;;;;;10.13;9.52;;;;;;;;;;4991802;28;20093;-59
2022/11/21 06:15:58;;;;;;;9.88;9.27;;;;;;;;;;4992869;28;20073;-59
2022/11/21 06:18:24;;;;;;;10.15;9.35;;;;;;;;;;4991470;28;20057;-58
2022/11/21 06:20:49;;;;;;;9.70;8.90;;;;;;;;;;4990875;28;20857;-59
2022/11/21 06:23:15;;;;;;;9.85;9.25;;;;;;;;;;4994159;28;20025;-59
2022/11/21 06:25:42;;;;;;;10.55;9.70;;;;;;;;;;4992383;28;20538;-58
2022/11/21 06:28:07;;;;;;;9.63;9.02;;;;;;;;;;4993642;28;20026;-59
2022/11/21 06:30:33;;;;;;;9.57;8.98;;;;;;;;;;4994090;28;20034;-59
2022/11/21 06:32:59;;;;;;;10.88;10.18;;;;;;;;;;4997118;28;20299;-59
2022/11/21 06:35:24;;;;;;;8.95;8.35;;;;;;;;;;4995326;28;20457;-59
2022/11/21 06:37:49;;;;;;;9.63;9.02;;;;;;;;;;4995876;28;20057;-59
2022/11/21 06:40:15;;;;;;;10.65;9.95;;;;;;;;;;4997929;28;20406;-59
2022/11/21 06:42:40;;;;;;;11.77;10.20;;;;;;;;;;4992242;28;20117;-59
2022/11/21 06:45:06;;;;;;;10.02;9.43;;;;;;;;;;4996169;28;20087;-59
2022/11/21 06:47:34;;;;;;;9.50;8.90;;;;;;;;;;4992734;28;20227;-59
2022/11/21 06:50:00;;;;;;;9.80;9.10;;;;;;;;;;4996154;28;20455;-59
2022/11/21 06:52:26;;;;;;;8.90;8.30;;;;;;;;;;4991661;28;20022;-59
2022/11/21 06:54:51;;;;;;;9.27;8.68;;;;;;;;;;4993992;28;20035;-60
2022/11/21 06:57:17;;;;;;;8.95;8.35;;;;;;;;;;4994629;28;20030;-60
2022/11/21 06:59:42;;;;;;;9.23;8.63;;;;;;;;;;5008696;28;20034;-59
2022/11/21 07:02:14;;;;;;;9.40;8.80;;;;;;;;;;4992739;28;20113;-60
2022/11/21 07:04:39;;;;;;;9.23;8.60;;;;;;;;;;4994060;28;20077;-59
2022/11/21 07:07:05;;;;;;;9.35;8.75;;;;;;;;;;5009691;28;20026;-59
2022/11/21 07:09:32;;;;;;;9.35;8.75;;;;;;;;;;4994179;28;20034;-58
2022/11/21 07:13:20;;;;;;;9.75;9.05;;;;;;;;;;4990961;28;20026;-59
2022/11/21 07:14:44;;;;;;;9.45;8.65;;;;;;;;;;4995276;28;20053;-59
2022/11/21 07:17:11;;;;;;;9.77;9.18;;;;;;;;;;4997234;28;20065;-58
2022/11/21 07:19:36;;;;;;;9.95;9.25;;;;;;;;;;4992132;28;21127;-58
2022/11/21 07:22:02;;;;;;;10.07;8.75;;;;;;;;;;4992728;28;20034;-58
2022/11/21 07:24:27;;;;;;;9.27;8.68;;;;;;;;;;4977074;28;20042;-59
2022/11/21 07:26:52;;;;;;;9.40;8.80;;;;;;;;;;4995105;28;20535;-59
2022/11/21 07:29:18;;;;;;;9.55;8.95;;;;;;;;;;4993634;28;20109;-60
2022/11/21 07:31:43;;;;;;;8.95;8.35;;;;;;;;;;4993294;28;20060;-59
2022/11/21 07:34:08;;;;;;;10.05;9.45;;;;;;;;;;4995220;28;20029;-60
2022/11/21 07:36:35;;;;;;;9.98;9.35;;;;;;;;;;4994068;28;20046;-59
2022/11/21 07:39:01;;;;;;;8.93;8.32;;;;;;;;;;4996521;28;20424;-59
2022/11/21 07:41:27;;;;;;;9.10;8.50;;;;;;;;;;4991554;28;20096;-59
2022/11/21 07:43:52;;;;;;;9.55;8.95;;;;;;;;;;4993242;28;20022;-59
2022/11/21 07:46:18;;;;;;;8.75;8.23;;;;;;;;;;4995739;28;20113;-59
2022/11/21 07:48:43;;;;;;;8.40;7.90;;;;;;;;;;4992798;28;20034;-59
2022/11/21 07:51:09;;;;;;;9.20;8.60;;;;;;;;;;4994706;28;20129;-59
2022/11/21 07:53:34;;;;;;;8.20;7.70;;;;;;;;;;4992998;28;20498;-59
2022/11/21 07:56:00;;;;;;;9.05;8.45;;;;;;;;;;4995515;28;20037;-59
2022/11/21 07:58:25;;;;;;;8.32;7.82;;;;;;;;;;4994774;28;20060;-59
2022/11/21 08:00:52;;;;;;;9.65;9.05;;;;;;;;;;4993509;28;20065;-60
2022/11/21 08:03:17;;;;;;;8.05;7.55;;;;;;;;;;4995444;28;20030;-59
2022/11/21 08:05:44;;;;;;;8.00;7.50;;;;;;;;;;4993876;28;20367;-60
2022/11/21 08:08:12;;;;;;;8.98;8.38;;;;;;;;;;4995085;28;20030;-59
2022/11/21 08:10:44;;;;;;;8.93;8.32;;;;;;;;;;4994784;28;20030;-59
2022/11/21 08:13:10;;;;;;;10.00;9.30;;;;;;;;;;4997195;28;20029;-59
2022/11/21 08:15:36;;;;;;;8.15;7.65;;;;;;;;;;4996053;28;20034;-59
2022/11/21 08:18:09;;;;;;;8.50;8.00;;;;;;;;;;4994797;28;20045;-59
2022/11/21 08:20:35;;;;;;;8.30;7.78;;;;;;;;;;4995342;28;20368;-60
2022/11/21 08:23:00;;;;;;;8.30;7.80;;;;;;;;;;5001062;28;20037;-59
2022/11/21 08:25:26;;;;;;;8.38;7.88;;;;;;;;;;4991297;28;20435;-59
2022/11/21 08:27:55;;;;;;;7.90;7.40;;;;;;;;;;4994506;28;20053;-59
2022/11/21 08:30:20;;;;;;;8.32;7.82;;;;;;;;;;4995643;28;20091;-59
2022/11/21 08:32:46;;;;;;;8.65;8.05;;;;;;;;;;4992402;28;20034;-59
2022/11/21 08:35:11;;;;;;;8.68;8.13;;;;;;;;;;4995831;28;20026;-59
2022/11/21 08:37:37;;;;;;;9.10;8.50;;;;;;;;;;4995914;28;20030;-60
2022/11/21 08:40:02;;;;;;;9.00;8.40;;;;;;;;;;4994209;28;20365;-59
2022/11/21 08:42:27;;;;;;;10.52;9.82;;;;;;;;;;4996574;28;20061;-59
2022/11/21 08:44:53;;;;;;;10.27;9.48;;;;;;;;;;4996500;28;20023;-59
2022/11/21 08:47:19;;;;;;;9.52;8.93;;;;;;;;;;4993862;28;20087;-59
2022/11/21 08:49:45;;;;;;;9.40;8.80;;;;;;;;;;4993444;28;20034;-59
2022/11/21 08:52:10;;;;;;;8.77;8.20;;;;;;;;;;4997319;28;20037;-59
2022/11/21 08:54:35;;;;;;;9.80;9.20;;;;;;;;;;4995683;28;20041;-59
2022/11/21 08:57:01;;;;;;;9.32;8.73;;;;;;;;;;4996547;28;20040;-59
2022/11/21 08:59:26;;;;;;;9.00;8.40;;;;;;;;;;4995439;28;20045;-59
2022/11/21 09:01:51;;;;;;;9.25;8.65;;;;;;;;;;4991363;28;20038;-60
2022/11/21 09:04:17;;;;;;;9.07;8.48;;;;;;;;;;4993914;28;20052;-59
2022/11/21 09:06:42;;;;;;;9.05;8.45;;;;;;;;;;4991551;28;20034;-59
2022/11/21 09:09:08;;;;;;;8.57;8.05;;;;;;;;;;4993238;28;20027;-59
2022/11/21 09:11:35;;;;;;;8.73;8.18;;;;;;;;;;4995699;28;20033;-59
2022/11/21 09:19:28;;;;;;;9.15;8.55;;;;;;;;;;4995103;28;20022;-59
2022/11/21 09:21:53;;;;;;;9.07;8.48;;;;;;;;;;4991309;28;20065;-59
2022/11/21 09:24:19;;;;;;;8.70;8.13;;;;;;;;;;4995964;28;20511;-59
2022/11/21 09:26:45;;;;;;;9.00;8.40;;;;;;;;;;4993986;28;20038;-59
2022/11/21 09:29:10;;;;;;;7.03;6.53;;;;;;;;;;4994467;28;20117;-59
2022/11/21 09:31:38;;;;;;;7.60;7.03;;;;;;;;;;4992884;28;20053;-59
2022/11/21 09:34:04;;;;;;;7.63;7.13;;;;;;;;;;4995503;28;20030;-59
2022/11/21 09:36:29;;;;;;;7.43;6.93;;;;;;;;;;4994220;28;20116;-59
2022/11/21 09:38:55;;;;;;;7.80;7.30;;;;;;;;;;4997450;28;20402;-59
2022/11/21 09:44:26;;;;;;;7.90;7.40;;;;;;;;;;4993012;28;20037;-59
2022/11/21 09:47:02;;;;;;;8.52;7.93;;;;;;;;;;4993247;28;20041;-59
2022/11/21 09:49:28;;;;;;;9.18;8.55;;;;;;;;;;4992460;28;20027;-59
2022/11/21 09:51:55;;;;;;;8.95;8.25;;;;;;;;;;4993531;28;20562;-59
2022/11/21 09:54:30;;;;;;;8.07;7.57;;;;;;;;;;4993110;28;20049;-59
2022/11/21 09:56:56;;;;;;;8.40;7.80;;;;;;;;;;4992712;28;20467;-59
2022/11/21 09:59:38;;;;;;;8.52;8.02;;;;;;;;;;4992809;28;20032;-59
2022/11/21 10:02:15;;;;;;;8.20;7.68;;;;;;;;;;4991872;28;20042;-59
2022/11/21 10:04:41;;;;;;;8.10;7.57;;;;;;;;;;4996454;28;20042;-59
2022/11/21 10:07:11;;;;;;;8.38;7.85;;;;;;;;;;4999706;28;20677;-59
2022/11/21 10:10:00;;;;;;;8.10;7.55;;;;;;;;;;4998235;28;20037;-59
2022/11/21 10:12:43;;;;;;;7.65;7.15;;;;;;;;;;4998281;28;20475;-59
2022/11/21 10:15:33;;;;;;;7.68;7.18;;;;;;;;;;4999221;28;20425;-59
2022/11/21 10:18:19;;;;;;;7.90;7.40;;;;;;;;;;4997835;28;20100;-59
2022/11/21 10:20:51;;;;;;;8.15;7.65;;;;;;;;;;4997523;28;21299;-59
2022/11/21 10:23:16;;;;;;;8.35;7.85;;;;;;;;;;4999801;28;20025;-59
2022/11/21 10:25:58;;;;;;;9.07;8.48;;;;;;;;;;4996655;28;20535;-59
2022/11/21 10:28:43;;;;;;;9.13;8.52;;;;;;;;;;5000301;28;20522;-58
2022/11/21 10:31:11;;;;;;;8.93;8.32;;;;;;;;;;4993560;28;20034;-60
2022/11/21 10:33:39;;;;;;;9.85;9.25;;;;;;;;;;4989795;28;20068;-60
2022/11/21 10:36:32;;;;;;;11.05;10.35;;;;;;;;;;5000139;28;20478;-59
2022/11/21 10:39:13;;;;;;;10.13;9.52;;;;;;;;;;4997036;28;20022;-59
2022/11/21 10:41:46;;;;;;;;;;;;;;;;;;4994020;28;20045;-59
2022/11/21 10:47:27;;;;;;;9.95;9.25;;;;;;;;;;5000041;28;20038;-60
2022/11/21 10:50:08;;;;;;;8.95;8.35;;;;;;;;;;4995906;28;20121;-59
2022/11/21 10:56:01;;;;;;;8.32;7.72;;;;;;;;;;4997165;28;20112;-59
2022/11/21 10:58:49;;;;;;;8.32;7.82;;;;;;;;;;4994410;28;20108;-60
2022/11/21 11:01:19;;;;;;;7.60;7.10;;;;;;;;;;4993485;28;20447;-60
2022/11/21 11:03:44;;;;;;;7.60;7.10;;;;;;;;;;4996746;28;20038;-59
2022/11/21 11:06:10;;;;;;;7.70;7.20;;;;;;;;;;4991245;28;20068;-61
2022/11/21 11:08:50;;;;;;;7.65;7.15;;;;;;;;;;4992521;28;20053;-59
2022/11/21 11:11:20;;;;;;;7.68;7.18;;;;;;;;;;4993060;28;20075;-59
2022/11/21 11:14:04;;;;;;;9.68;9.07;;;;;;;;;;4995560;28;20022;-60
2022/11/21 11:16:33;;;;;;;10.10;9.40;;;;;;;;;;4995227;28;20116;-62
2022/11/21 11:19:12;;;;;;;10.77;10.00;;;;;;;;;;4994469;28;20121;-60
2022/11/21 11:21:38;;;;;;;9.82;9.23;;;;;;;;;;4995270;28;20034;-61
2022/11/21 11:24:09;;;;;;;11.15;9.88;;;;;;;;;;4996891;28;20565;-62
2022/11/21 11:26:59;;;;;;;9.32;8.73;;;;;;;;;;4996572;28;20604;-61
2022/11/21 11:29:30;;;;;;;9.25;8.65;;;;;;;;;;4992639;28;20042;-60
2022/11/21 11:32:17;;;;;;;8.35;7.85;;;;;;;;;;4993044;28;20418;-60
2022/11/21 11:34:51;;;;;;;8.27;7.78;;;;;;;;;;4996744;28;20046;-60
2022/11/21 11:37:31;;;;;;;8.18;7.68;;;;;;;;;;4992535;28;20044;-60
2022/11/21 11:40:22;;;;;;;8.70;8.15;;;;;;;;;;5007183;28;20026;-60
2022/11/21 11:49:17;;;;;;;9.02;8.43;;;;;;;;;;4990015;28;20037;-59
2022/11/21 11:51:50;;;;;;;8.15;7.65;;;;;;;;;;4991735;28;20030;-59
2022/11/21 11:54:24;;;;;;;8.30;7.80;;;;;;;;;;4998823;28;20038;-60
2022/11/21 11:56:49;;;;;;;7.90;7.40;;;;;;;;;;4994972;28;20054;-59
2022/11/21 11:59:21;;;;;;;7.85;7.35;;;;;;;;;;4993227;28;20136;-60
2022/11/21 12:01:56;;;;;;;8.32;7.82;;;;;;;;;;4995110;28;20080;-60
2022/11/21 12:04:23;;;;;;;8.50;7.90;;;;;;;;;;4995330;28;20029;-59
2022/11/21 12:07:14;;;;;;;8.13;7.63;;;;;;;;;;5000759;28;20030;-59
2022/11/21 12:09:58;;;;;;;8.23;7.72;;;;;;;;;;4995861;28;20037;-59
2022/11/21 12:12:38;;;;;;;8.38;7.88;;;;;;;;;;4995642;28;20113;-59
2022/11/21 12:18:14;;;;;;;8.57;8.05;;;;;;;;;;4992040;28;20368;-59
2022/11/21 12:20:58;;;;;;;;;;;;;;;;;;4996290;28;20057;-59
2022/11/21 12:23:27;;;;;;;9.75;8.95;;;;;;;;;;4993386;28;19941;-58
2022/11/21 12:26:09;;;;;;;11.20;10.50;;;;;;;;;;4996569;28;20652;-58
2022/11/21 12:28:50;;;;;;;12.07;9.98;;;;;;;;;;4993220;28;20521;-58
2022/11/21 12:31:54;;;;;;;10.13;9.53;;;;;;;;;;4994935;28;20030;-58
2022/11/21 12:34:29;;;;;;;10.45;9.85;;;;;;;;;;4995712;28;20165;-59
2022/11/21 12:37:32;;;;;;;9.70;9.10;;;;;;;;;;4992156;28;20045;-59
2022/11/21 12:40:21;;;;;;;10.10;9.20;;;;;;;;;;4994403;28;20033;-60
2022/11/21 12:42:58;;;;;;;8.68;8.07;;;;;;;;;;4994296;28;20038;-60
2022/11/21 12:45:33;;;;;;;9.68;9.07;;;;;;;;;;4993341;28;20117;-61
2022/11/21 12:56:58;;;;;;;8.95;8.35;;;;;;;;;;4993654;28;20084;-59
2022/11/21 12:59:24;;;;;;;9.90;9.30;;;;;;;;;;4992925;28;20062;-60
2022/11/21 13:02:17;;;;;;;11.50;10.60;;;;;;;;;;4990256;28;20030;-60
2022/11/21 13:04:46;;;;;;;13.10;12.32;;;;;;;;;;4995344;28;20039;-60
2022/11/21 13:07:11;;;;;;;14.73;13.65;;;;;;;;;;4994543;28;20388;-60
2022/11/21 13:09:45;;;;;;;13.52;12.73;;;;;;;;;;4996675;28;20111;-59
2022/11/21 13:12:25;;;;;;;14.60;13.80;;;;;;;;;;4993477;28;20054;-59
2022/11/21 13:15:01;;;;;;;15.73;14.82;;;;;;;;;;4996787;28;20168;-59
2022/11/21 13:17:27;;;;;;;15.88;14.98;;;;;;;;;;4992342;28;20132;-60
2022/11/21 13:19:55;;;;;;;16.15;15.25;;;;;;;;;;4993972;28;20680;-60
2022/11/21 13:22:36;;;;;;;15.40;14.50;;;;;;;;;;4992459;28;20104;-60
2022/11/21 13:25:39;;;;;;;15.95;15.05;;;;;;;;;;4995039;28;20033;-60
2022/11/21 13:28:17;;;;;;;14.38;13.48;;;;;;;;;;4994010;28;20027;-59
2022/11/21 13:30:50;;;;;;;11.98;11.27;;;;;;;;;;4993155;28;20052;-59
2022/11/21 13:33:34;;;;;;;12.52;11.82;;;;;;;;;;4993822;28;20084;-60
2022/11/21 13:36:10;;;;;;;10.43;9.82;;;;;;;;;;4991841;28;20037;-60
2022/11/21 13:38:54;;;;;;;11.02;10.32;;;;;;;;;;4992505;28;20038;-59
2022/11/21 13:44:30;;;;;;;12.40;11.50;;;;;;;;;;4993974;28;20038;-60
2022/11/21 13:47:01;;;;;;;10.57;9.88;;;;;;;;;;4992851;28;20057;-60
2022/11/21 13:49:35;;;;;;;9.63;9.02;;;;;;;;;;4991332;28;20081;-60
2022/11/21 13:52:11;;;;;;;10.32;9.68;;;;;;;;;;4990729;28;20034;-60
2022/11/21 13:54:49;;;;;;;9.52;8.93;;;;;;;;;;4993398;28;20034;-60
2022/11/21 13:57:52;;;;;;;9.73;9.13;;;;;;;;;;4991558;28;20109;-60
2022/11/21 14:00:28;;;;;;;9.38;8.77;;;;;;;;;;4992443;28;20080;-60
2022/11/21 14:03:24;;;;;;;9.63;9.02;;;;;;;;;;4993885;28;20035;-60
2022/11/21 14:06:32;;;;;;;9.98;9.27;;;;;;;;;;4989008;28;20057;-59
2022/11/21 14:09:16;;;;;;;10.70;9.95;;;;;;;;;;4988119;28;20042;-60
2022/11/21 14:11:49;;;;;;;10.88;9.98;;;;;;;;;;4991786;28;20339;-61
2022/11/21 14:14:29;;;;;;;10.07;9.48;;;;;;;;;;4994024;28;20084;-60
2022/11/21 14:17:33;;;;;;;31.50;12.45;;;;;;;;;;4992527;28;20018;-60
2022/11/21 14:20:07;;;;;;;20.60;16.50;;;;;;;;;;4994073;28;20037;-60
2022/11/21 14:22:59;;;;;;;29.17;23.00;;;;;;;;;;4993018;28;20034;-60
2022/11/21 14:25:40;;;;;;;80.97;48.40;;;;;;;;;;4989461;28;20104;-60
2022/11/21 14:28:13;;;;;;;42.67;30.73;;;;;;;;;;4992420;28;20033;-60
2022/11/21 14:30:40;;;;;;;126.85;61.35;;;;;;;;;;4993480;28;20034;-60
2022/11/21 14:33:22;;;;;;;50.97;28.92;;;;;;;;;;4995483;28;20037;-60
2022/11/21 14:35:52;;;;;;;21.23;18.75;;;;;;;;;;4992968;28;20049;-60
2022/11/21 14:38:20;;;;;;;74.65;46.67;;;;;;;;;;4991788;28;20029;-60
2022/11/21 14:40:45;;;;;;;24.23;21.83;;;;;;;;;;4991693;28;20089;-60
2022/11/21 14:43:31;;;;;;;19.85;18.05;;;;;;;;;;4991413;28;20029;-60
2022/11/21 14:45:56;;;;;;;19.45;17.60;;;;;;;;;;4993701;28;20492;-60
2022/11/21 14:48:26;;;;;;;22.20;19.58;;;;;;;;;;4994437;28;20391;-60
2022/11/21 14:50:52;;;;;;;20.83;18.73;;;;;;;;;;4996378;28;20044;-60
2022/11/21 14:53:17;;;;;;;17.38;15.88;;;;;;;;;;4991727;28;20037;-60
2022/11/21 14:55:48;;;;;;;29.52;22.35;;;;;;;;;;4995226;28;20056;-60
2022/11/21 14:58:15;;;;;;;32.97;29.60;;;;;;;;;;4992642;28;20033;-60
2022/11/21 15:00:40;;;;;;;18.42;16.63;;;;;;;;;;4994984;28;20032;-60
2022/11/21 15:03:18;;;;;;;11.43;10.63;;;;;;;;;;4991856;28;20026;-60
2022/11/21 15:05:45;;;;;;;12.05;11.13;;;;;;;;;;4993110;28;20034;-60
2022/11/21 15:08:10;;;;;;;10.20;9.50;;;;;;;;;;4994779;28;20022;-60
2022/11/21 15:10:35;;;;;;;9.55;8.85;;;;;;;;;;4993730;28;20044;-60
2022/11/21 15:13:12;;;;;;;9.40;8.73;;;;;;;;;;4965757;28;20041;-60
2022/11/21 15:15:45;;;;;;;10.27;9.48;;;;;;;;;;4997852;28;20088;-60
2022/11/21 15:18:29;;;;;;;9.55;8.68;;;;;;;;;;4996537;28;20390;-60
2022/11/21 15:20:58;;;;;;;8.98;8.27;;;;;;;;;;4991752;28;20361;-60
2022/11/21 15:23:32;;;;;;;8.70;7.95;;;;;;;;;;4994747;28;20045;-60
2022/11/21 15:25:58;;;;;;;9.82;9.02;;;;;;;;;;4996481;28;20534;-60
2022/11/21 15:28:24;;;;;;;8.98;8.18;;;;;;;;;;4995158;28;20037;-60
2022/11/21 15:31:20;;;;;;;9.82;9.00;;;;;;;;;;4995833;28;20159;-60
2022/11/21 15:33:58;;;;;;;8.60;7.90;;;;;;;;;;4990694;28;20096;-60
2022/11/21 15:36:24;;;;;;;12.48;9.75;;;;;;;;;;4995339;28;20762;-60